Time;durP1;ratioP1;P1;durP2;ratioP2;P2;SDS_P1;SDS_P2;PMS_P1;PMS_P2;Temp;Humidity;BMP_temperature;BMP_pressure;BME280_temperature;BME280_humidity;BME280_pressure;Samples;Min_cycle;Max_cycle;Signal;HPM_P1;HPM_P2
2019/05/17 00:02:11;;;;;;;6.8;5.9;;;;;;;;;;;;;
2019/05/17 00:04:44;;;;;;;7.8;6.2;;;;;;;;;;;;;
2019/05/17 00:07:02;;;;;;;9;6.3;;;;;;;;;;;;;
2019/05/17 00:09:35;;;;;;;8.3;6.7;;;;;;;;;;;;;
2019/05/17 00:12:01;;;;;;;10.7;7.3;;;;;;;;;;;;;
2019/05/17 00:14:30;;;;;;;7.9;6.2;;;;;;;;;;;;;
2019/05/17 00:16:53;;;;;;;11;6.8;;;;;;;;;;;;;
2019/05/17 00:19:19;;;;;;;8.2;6.8;;;;;;;;;;;;;
2019/05/17 00:21:47;;;;;;;8.2;6.6;;;;;;;;;;;;;
2019/05/17 00:24:10;;;;;;;9.3;6.3;;;;;;;;;;;;;
2019/05/17 00:29:44;;;;;;;7.3;6.5;;;;;;;;;;;;;
2019/05/17 02:35:06;;;;;;;7.6;6.4;;;;;;;;;;;;;
2019/05/17 02:37:36;;;;;;;9.6;7.3;;;;;;;;;;;;;
2019/05/17 02:39:59;;;;;;;8.8;7.4;;;;;;;;;;;;;
2019/05/17 02:42:26;;;;;;;8.1;7.3;;;;;;;;;;;;;
2019/05/17 02:44:59;;;;;;;8.5;7.4;;;;;;;;;;;;;
2019/05/17 02:47:18;;;;;;;10;7.2;;;;;;;;;;;;;
2019/05/17 02:49:44;;;;;;;8.7;7.7;;;;;;;;;;;;;
2019/05/17 02:52:09;;;;;;;13.1;7.3;;;;;;;;;;;;;
2019/05/17 02:54:35;;;;;;;10.1;7.3;;;;;;;;;;;;;
2019/05/17 02:57:03;;;;;;;9.7;7.4;;;;;;;;;;;;;
2019/05/17 02:59:27;;;;;;;13.3;10.4;;;;;;;;;;;;;
2019/05/17 03:00:13;;;;;;;14.9;10.8;;;;;;;;;;;;;
2019/05/17 03:02:37;;;;;;;15.2;12.2;;;;;;;;;;;;;
2019/05/17 03:05:03;;;;;;;12;9.1;;;;;;;;;;;;;
2019/05/17 03:07:29;;;;;;;9.9;7.6;;;;;;;;;;;;;
2019/05/17 03:09:55;;;;;;;8.9;8;;;;;;;;;;;;;
2019/05/17 03:12:18;;;;;;;13.1;8;;;;;;;;;;;;;
2019/05/17 03:14:44;;;;;;;7.9;7.1;;;;;;;;;;;;;
2019/05/17 03:17:10;;;;;;;10.2;7.1;;;;;;;;;;;;;
2019/05/17 03:19:37;;;;;;;9.2;7.3;;;;;;;;;;;;;
2019/05/17 03:22:03;;;;;;;8.2;7.4;;;;;;;;;;;;;
2019/05/17 03:24:29;;;;;;;12.8;7.4;;;;;;;;;;;;;
2019/05/17 03:26:54;;;;;;;7.5;6.4;;;;;;;;;;;;;
2019/05/17 03:29:20;;;;;;;9.7;7.2;;;;;;;;;;;;;
2019/05/17 03:31:51;;;;;;;7.9;7.1;;;;;;;;;;;;;
2019/05/17 03:34:13;;;;;;;9.2;6.9;;;;;;;;;;;;;
2019/05/17 03:36:41;;;;;;;8.6;7.3;;;;;;;;;;;;;
2019/05/17 03:39:08;;;;;;;9.1;7.5;;;;;;;;;;;;;
2019/05/17 03:41:29;;;;;;;8.1;6.8;;;;;;;;;;;;;
2019/05/17 03:44:02;;;;;;;15.9;7.4;;;;;;;;;;;;;
2019/05/17 03:46:26;;;;;;;13;9.7;;;;;;;;;;;;;
2019/05/17 03:48:52;;;;;;;18.2;12.9;;;;;;;;;;;;;
2019/05/17 03:51:19;;;;;;;18.6;12.4;;;;;;;;;;;;;
2019/05/17 03:53:42;;;;;;;18.6;14.8;;;;;;;;;;;;;
2019/05/17 03:56:10;;;;;;;15;12.6;;;;;;;;;;;;;
2019/05/17 03:58:39;;;;;;;14.5;12.1;;;;;;;;;;;;;
2019/05/17 04:01:03;;;;;;;14.2;11.6;;;;;;;;;;;;;
2019/05/17 04:03:36;;;;;;;11.9;8;;;;;;;6.25;79.88965;929.5513;;;;
2019/05/17 04:06:05;;;;;;;8.8;6.9;;;;;;;6.17;80.14746;929.6005;;;;
2019/05/17 04:08:32;;;;;;;7.3;6.6;;;;;;;6.11;80.47266;929.6614;;;;
2019/05/17 04:11:06;;;;;;;8.6;6.9;;;;;;;6.04;80.41504;929.6464;;;;
2019/05/17 04:13:35;;;;;;;11;7.1;;;;;;;6;80.65527;929.6835;;;;
2019/05/17 04:16:00;;;;;;;9.2;7.7;;;;;;;5.86;81.18164;929.6584;;;;
2019/05/17 04:18:35;;;;;;;10.1;7;;;;;;;5.92;80.97949;929.6613;;;;
2019/05/17 04:21:04;;;;;;;7.6;6.2;;;;;;;5.77;81.31152;929.6785;;;;
2019/05/17 04:23:30;;;;;;;9.7;6.7;;;;;;;5.26;83.49316;929.673;;;;
2019/05/17 04:25:58;;;;;;;7.8;6.3;;;;;;;5.1;84.35254;929.6662;;;;
2019/05/17 04:28:25;;;;;;;10.2;7.4;;;;;;;5.35;83.44336;929.5891;;;;
2019/05/17 04:30:54;;;;;;;10.1;6.7;;;;;;;5.29;83.6582;929.6616;;;;
2019/05/17 04:33:21;;;;;;;8.7;6.1;;;;;;;5.46;82.96777;929.6683;;;;
2019/05/17 04:35:53;;;;;;;10.8;7;;;;;;;5.37;83.71582;929.6722;;;;
2019/05/17 04:38:17;;;;;;;7.4;6.7;;;;;;;5.36;84.31348;929.6516;;;;
2019/05/17 04:40:43;;;;;;;14.3;8.9;;;;;;;;;;;;;
2019/05/17 04:43:07;;;;;;;11.4;8.1;;;;;;;;;;;;;
2019/05/17 04:45:33;;;;;;;12.5;7.8;;;;;;;;;;;;;
2019/05/17 04:48:02;;;;;;;11.2;8.3;;;;;;;;;;;;;
2019/05/17 04:50:27;;;;;;;10.4;6.6;;;;;;;;;;;;;
2019/05/17 04:52:59;;;;;;;7.2;6.1;;;;;;;;;;;;;
2019/05/17 04:55:24;;;;;;;8.8;6.3;;;;;;;;;;;;;
2019/05/17 04:57:52;;;;;;;8.9;6;;;;;;;;;;;;;
2019/05/17 05:00:15;;;;;;;9.8;5.7;;;;;;;;;;;;;
2019/05/17 05:02:41;;;;;;;8.5;5.8;;;;;;;;;;;;;
2019/05/17 05:05:05;;;;;;;10.4;5.6;;;;;;;;;;;;;
2019/05/17 05:07:34;;;;;;;8.1;6.2;;;;;;;;;;;;;
2019/05/17 05:10:01;;;;;;;7.9;5.8;;;;;;;;;;;;;
2019/05/17 05:12:23;;;;;;;11.1;6;;;;;;;;;;;;;
2019/05/17 05:14:55;;;;;;;6.9;3.9;;;;;;;;;;;;;
2019/05/17 05:17:20;;;;;;;4.1;3.7;;;;;;;;;;;;;
2019/05/17 05:19:50;;;;;;;3.8;3.1;;;;;;;;;;;;;
2019/05/17 05:22:14;;;;;;;11.9;3.6;;;;;;;;;;;;;
2019/05/17 05:24:47;;;;;;;7.9;3.2;;;;;;;;;;;;;
2019/05/17 05:27:07;;;;;;;5.4;2.7;;;;;;;;;;;;;
2019/05/17 05:29:33;;;;;;;3.9;2.6;;;;;;;;;;;;;
2019/05/17 05:32:06;;;;;;;6.2;2.6;;;;;;;;;;;;;
2019/05/17 05:34:25;;;;;;;3.8;2.5;;;;;;;;;;;;;
2019/05/17 05:36:51;;;;;;;7.7;3.2;;;;;;;;;;;;;
2019/05/17 05:39:19;;;;;;;6.7;3.3;;;;;;;;;;;;;
2019/05/17 05:41:41;;;;;;;4;2.5;;;;;;;;;;;;;
2019/05/17 05:44:07;;;;;;;7.9;3.1;;;;;;;;;;;;;
2019/05/17 05:46:33;;;;;;;6.8;2.9;;;;;;;;;;;;;
2019/05/17 05:48:59;;;;;;;6.7;2.7;;;;;;;;;;;;;
2019/05/17 05:51:27;;;;;;;5.6;2.8;;;;;;;;;;;;;
2019/05/17 05:53:52;;;;;;;5;2.4;;;;;;;;;;;;;
2019/05/17 05:56:23;;;;;;;4.9;2.5;;;;;;;;;;;;;
2019/05/17 05:58:50;;;;;;;6.8;2.3;;;;;;;;;;;;;
2019/05/17 06:01:14;;;;;;;7.6;2.6;;;;;;;;;;;;;
2019/05/17 06:03:39;;;;;;;6;2.6;;;;;;;;;;;;;
2019/05/17 06:06:03;;;;;;;4.4;2.3;;;;;;;;;;;;;
2019/05/17 06:08:28;;;;;;;5;2.4;;;;;;;;;;;;;
2019/05/17 06:10:54;;;;;;;6.9;2.5;;;;;;;;;;;;;
2019/05/17 06:13:19;;;;;;;4.2;2.3;;;;;;;;;;;;;
2019/05/17 06:15:44;;;;;;;5.4;2.1;;;;;;;;;;;;;
2019/05/17 06:18:09;;;;;;;4.1;2.1;;;;;;;;;;;;;
2019/05/17 06:20:39;;;;;;;5.7;2.3;;;;;;;;;;;;;
2019/05/17 06:22:59;;;;;;;5;2.4;;;;;;;;;;;;;
2019/05/17 06:25:25;;;;;;;7.2;2.3;;;;;;;;;;;;;
2019/05/17 06:27:49;;;;;;;6.6;2.4;;;;;;;;;;;;;
2019/05/17 06:30:17;;;;;;;4;2;;;;;;;;;;;;;
2019/05/17 06:32:40;;;;;;;3.9;1.8;;;;;;;;;;;;;
2019/05/17 06:35:05;;;;;;;4;1.9;;;;;;;;;;;;;
2019/05/17 06:37:31;;;;;;;3.2;1.8;;;;;;;;;;;;;
2019/05/17 06:39:57;;;;;;;3.9;1.8;;;;;;;;;;;;;
2019/05/17 06:42:23;;;;;;;8.2;1.8;;;;;;;;;;;;;
2019/05/17 06:44:51;;;;;;;4.3;1.8;;;;;;;;;;;;;
2019/05/17 06:47:15;;;;;;;7.3;1.8;;;;;;;;;;;;;
2019/05/17 06:49:41;;;;;;;3.4;1.9;;;;;;;;;;;;;
2019/05/17 06:52:06;;;;;;;3.1;1.4;;;;;;;;;;;;;
2019/05/17 06:54:32;;;;;;;2.8;1.4;;;;;;;;;;;;;
2019/05/17 06:56:59;;;;;;;4.4;1.4;;;;;;;;;;;;;
2019/05/17 06:59:24;;;;;;;6.4;1.8;;;;;;;;;;;;;
2019/05/17 07:01:50;;;;;;;2.9;1.3;;;;;;;;;;;;;
2019/05/17 07:04:15;;;;;;;5.9;1.4;;;;;;;;;;;;;
2019/05/17 07:06:39;;;;;;;2.9;1.5;;;;;;;;;;;;;
2019/05/17 07:09:06;;;;;;;1.8;1.2;;;;;;;;;;;;;
2019/05/17 07:11:31;;;;;;;2.4;1.1;;;;;;;;;;;;;
2019/05/17 07:13:56;;;;;;;4.1;1.2;;;;;;;;;;;;;
2019/05/17 07:16:19;;;;;;;2.4;1.1;;;;;;;;;;;;;
2019/05/17 07:18:46;;;;;;;2.5;1.2;;;;;;;;;;;;;
2019/05/17 07:21:15;;;;;;;1.7;1.2;;;;;;;;;;;;;
2019/05/17 07:23:37;;;;;;;2.7;1;;;;;;;;;;;;;
2019/05/17 07:26:02;;;;;;;1.9;0.8;;;;;;;;;;;;;
2019/05/17 07:28:32;;;;;;;2;1.1;;;;;;;;;;;;;
2019/05/17 07:30:55;;;;;;;1.9;0.8;;;;;;;;;;;;;
2019/05/17 07:33:20;;;;;;;2.1;1;;;;;;;;;;;;;
2019/05/17 07:35:46;;;;;;;2.3;0.9;;;;;;;;;;;;;
2019/05/17 07:38:12;;;;;;;2.6;0.9;;;;;;;;;;;;;
2019/05/17 07:40:38;;;;;;;1.1;0.7;;;;;;;;;;;;;
2019/05/17 07:43:02;;;;;;;1;0.8;;;;;;;;;;;;;
2019/05/17 07:45:28;;;;;;;2;0.8;;;;;;;;;;;;;
2019/05/17 07:47:54;;;;;;;4.4;1.1;;;;;;;;;;;;;
2019/05/17 07:50:20;;;;;;;6.2;0.8;;;;;;;;;;;;;
2019/05/17 07:52:43;;;;;;;1.1;0.8;;;;;;;;;;;;;
2019/05/17 07:55:09;;;;;;;1.2;0.8;;;;;;;;;;;;;
2019/05/17 07:57:41;;;;;;;0.9;0.7;;;;;;;;;;;;;
2019/05/17 08:00:06;;;;;;;1.4;0.7;;;;;;;;;;;;;
2019/05/17 08:02:32;;;;;;;4.1;0.7;;;;;;;;;;;;;
2019/05/17 08:05:01;;;;;;;1.6;0.8;;;;;;;;;;;;;
2019/05/17 08:07:27;;;;;;;3.6;0.9;;;;;;;;;;;;;
2019/05/17 08:09:55;;;;;;;1.3;0.8;;;;;;;;;;;;;
2019/05/17 08:12:20;;;;;;;2;0.8;;;;;;;;;;;;;
2019/05/17 08:14:48;;;;;;;1.6;0.7;;;;;;;;;;;;;
2019/05/17 08:17:11;;;;;;;2.4;0.9;;;;;;;;;;;;;
2019/05/17 08:19:40;;;;;;;2.8;1.1;;;;;;;;;;;;;
2019/05/17 08:22:10;;;;;;;3.1;1.2;;;;;;;;;;;;;
2019/05/17 08:29:44;;;;;;;3.1;1.2;;;;;;;;;;;;;
2019/05/17 08:32:12;;;;;;;2.9;1.2;;;;;;;;;;;;;
2019/05/17 08:34:38;;;;;;;3.2;1.3;;;;;;;;;;;;;
2019/05/17 08:37:03;;;;;;;3.8;1.3;;;;;;;;;;;;;
2019/05/17 08:39:28;;;;;;;1.7;1.4;;;;;;;;;;;;;
2019/05/17 08:41:53;;;;;;;4.9;1.4;;;;;;;;;;;;;
2019/05/17 08:44:23;;;;;;;4.6;1.3;;;;;;;;;;;;;
2019/05/17 08:46:54;;;;;;;4;1.4;;;;;;;;;;;;;
2019/05/17 08:49:17;;;;;;;3.2;1.3;;;;;;;;;;;;;
2019/05/17 08:51:43;;;;;;;5.1;1.3;;;;;;;;;;;;;
2019/05/17 08:54:07;;;;;;;2.8;1.3;;;;;;;;;;;;;
2019/05/17 08:56:33;;;;;;;1.8;1.5;;;;;;;;;;;;;
2019/05/17 08:59:00;;;;;;;2.9;1.4;;;;;;;;;;;;;
2019/05/17 09:01:36;;;;;;;3.2;1.6;;;;;;;;;;;;;
2019/05/17 09:03:54;;;;;;;2.4;1.4;;;;;;;;;;;;;
2019/05/17 09:06:20;;;;;;;2;1.4;;;;;;;;;;;;;
2019/05/17 09:08:51;;;;;;;4;1.4;;;;;;;;;;;;;
2019/05/17 09:11:13;;;;;;;2.4;1.4;;;;;;;;;;;;;
2019/05/17 09:13:40;;;;;;;2.1;1.7;;;;;;;;;;;;;
2019/05/17 09:16:01;;;;;;;3.7;1.6;;;;;;;;;;;;;
2019/05/17 09:18:30;;;;;;;2;1.6;;;;;;;;;;;;;
2019/05/17 09:20:56;;;;;;;2.6;1.7;;;;;;;;;;;;;
2019/05/17 09:23:28;;;;;;;1.9;1.5;;;;;;;;;;;;;
2019/05/17 09:25:47;;;;;;;1.5;1.3;;;;;;;;;;;;;
2019/05/17 09:28:12;;;;;;;2.2;1.5;;;;;;;;;;;;;
2019/05/17 09:30:36;;;;;;;2.2;1.5;;;;;;;;;;;;;
2019/05/17 09:33:06;;;;;;;3.2;1.7;;;;;;;;;;;;;
2019/05/17 09:35:29;;;;;;;3.1;1.4;;;;;;;;;;;;;
2019/05/17 09:37:55;;;;;;;2.9;1.4;;;;;;;;;;;;;
2019/05/17 09:40:22;;;;;;;2.4;1.4;;;;;;;;;;;;;
2019/05/17 09:42:50;;;;;;;4.6;1.6;;;;;;;;;;;;;
2019/05/17 09:45:11;;;;;;;2;1.6;;;;;;;;;;;;;
2019/05/17 09:47:36;;;;;;;2.1;1.6;;;;;;;;;;;;;
2019/05/17 09:50:01;;;;;;;3;1.4;;;;;;;;;;;;;
2019/05/17 09:52:26;;;;;;;2.5;1.5;;;;;;;;;;;;;
2019/05/17 09:54:55;;;;;;;2.2;1.5;;;;;;;;;;;;;
2019/05/17 10:00:18;;;;;;;1.7;1.3;;;;;;;;;;;;;
2019/05/17 10:02:31;;;;;;;3.8;1.3;;;;;;;;;;;;;
2019/05/17 10:04:55;;;;;;;3.7;1.3;;;;;;;;;;;;;
2019/05/17 10:07:24;;;;;;;2.4;1.6;;;;;;;;;;;;;
2019/05/17 10:09:47;;;;;;;2.6;1.3;;;;;;;;;;;;;
2019/05/17 10:12:13;;;;;;;1.9;1.3;;;;;;;;;;;;;
2019/05/17 10:14:41;;;;;;;2.3;1.4;;;;;;;;;;;;;
2019/05/17 10:17:06;;;;;;;2.7;1.5;;;;;;;;;;;;;
2019/05/17 10:19:36;;;;;;;2;1.4;;;;;;;;;;;;;
2019/05/17 10:21:59;;;;;;;3.2;1.5;;;;;;;;;;;;;
2019/05/17 10:24:26;;;;;;;4.4;1.5;;;;;;;;;;;;;
2019/05/17 10:26:53;;;;;;;2.9;1.5;;;;;;;;;;;;;
2019/05/17 10:29:19;;;;;;;2.6;1.5;;;;;;;;;;;;;
2019/05/17 10:31:45;;;;;;;2;1.5;;;;;;;;;;;;;
2019/05/17 10:34:16;;;;;;;2;1.5;;;;;;;;;;;;;
2019/05/17 10:36:41;;;;;;;5;1.8;;;;;;;;;;;;;
2019/05/17 10:39:08;;;;;;;2.8;1.5;;;;;;;;;;;;;
2019/05/17 10:41:36;;;;;;;3.5;1.4;;;;;;;;;;;;;
2019/05/17 10:43:58;;;;;;;3;1.5;;;;;;;;;;;;;
2019/05/17 10:46:25;;;;;;;2.8;1.7;;;;;;;;;;;;;
2019/05/17 10:48:49;;;;;;;2.9;1.9;;;;;;;;;;;;;
2019/05/17 10:51:16;;;;;;;2.7;1.6;;;;;;;;;;;;;
2019/05/17 10:53:45;;;;;;;2.1;1.6;;;;;;;;;;;;;
2019/05/17 10:56:08;;;;;;;3.9;1.8;;;;;;;;;;;;;
2019/05/17 10:58:36;;;;;;;2.9;1.8;;;;;;;;;;;;;
2019/05/17 11:01:02;;;;;;;3.3;1.6;;;;;;;;;;;;;
2019/05/17 11:03:27;;;;;;;2.6;1.8;;;;;;;;;;;;;
2019/05/17 11:05:52;;;;;;;4.8;1.6;;;;;;;;;;;;;
2019/05/17 11:08:17;;;;;;;2.7;1.5;;;;;;;;;;;;;
2019/05/17 11:10:47;;;;;;;2;1.5;;;;;;;;;;;;;
2019/05/17 11:13:12;;;;;;;2.2;1.5;;;;;;;;;;;;;
2019/05/17 11:15:38;;;;;;;2;1.6;;;;;;;;;;;;;
2019/05/17 11:18:03;;;;;;;1.8;1.5;;;;;;;;;;;;;
2019/05/17 11:20:29;;;;;;;6.9;1.5;;;;;;;;;;;;;
2019/05/17 11:23:05;;;;;;;2.5;1.5;;;;;;;;;;;;;
2019/05/17 11:25:31;;;;;;;1.9;1.5;;;;;;;;;;;;;
2019/05/17 11:27:58;;;;;;;4;1.6;;;;;;;;;;;;;
2019/05/17 11:30:32;;;;;;;3;1.5;;;;;;;;;;;;;
2019/05/17 11:33:09;;;;;;;3.8;1.5;;;;;;;;;;;;;
2019/05/17 11:35:34;;;;;;;3.1;1.3;;;;;;;;;;;;;
2019/05/17 11:37:58;;;;;;;1.9;1.1;;;;;;;;;;;;;
2019/05/17 11:40:22;;;;;;;2.1;1.3;;;;;;;;;;;;;
2019/05/17 11:42:56;;;;;;;3.1;1.3;;;;;;;;;;;;;
2019/05/17 11:45:27;;;;;;;3.7;1.4;;;;;;;;;;;;;
2019/05/17 11:47:49;;;;;;;1.8;1.2;;;;;;;;;;;;;
2019/05/17 11:50:14;;;;;;;3;1.4;;;;;;;;;;;;;
2019/05/17 11:52:41;;;;;;;3.6;1.3;;;;;;;;;;;;;
2019/05/17 11:55:06;;;;;;;5.1;1.3;;;;;;;;;;;;;
2019/05/17 11:57:30;;;;;;;3.2;1.2;;;;;;;;;;;;;
2019/05/17 11:59:59;;;;;;;1.4;1.2;;;;;;;;;;;;;
2019/05/17 12:02:25;;;;;;;4.6;1.4;;;;;;;;;;;;;
2019/05/17 12:04:47;;;;;;;1.3;1.2;;;;;;;;;;;;;
2019/05/17 12:07:10;;;;;;;3;1.2;;;;;;;;;;;;;
2019/05/17 12:09:35;;;;;;;2.6;1.3;;;;;;;;;;;;;
2019/05/17 12:12:15;;;;;;;1.7;1.2;;;;;;;;;;;;;
2019/05/17 12:14:36;;;;;;;2.9;1.2;;;;;;;;;;;;;
2019/05/17 12:17:07;;;;;;;1.7;1.2;;;;;;;;;;;;;
2019/05/17 12:19:34;;;;;;;1.6;1.2;;;;;;;;;;;;;
2019/05/17 12:21:55;;;;;;;3;1.1;;;;;;;;;;;;;
2019/05/17 12:24:26;;;;;;;2.2;1.2;;;;;;;;;;;;;
2019/05/17 12:26:49;;;;;;;1.1;1;;;;;;;;;;;;;
2019/05/17 12:29:18;;;;;;;2.7;1.2;;;;;;;;;;;;;
2019/05/17 12:31:46;;;;;;;1.4;1.2;;;;;;;;;;;;;
2019/05/17 12:34:11;;;;;;;2.4;1.2;;;;;;;;;;;;;
2019/05/17 12:36:36;;;;;;;2;1.4;;;;;;;;;;;;;
2019/05/17 12:39:06;;;;;;;1.9;1.3;;;;;;;;;;;;;
2019/05/17 12:41:26;;;;;;;1.9;1.3;;;;;;;;;;;;;
2019/05/17 12:43:52;;;;;;;2.7;1.3;;;;;;;;;;;;;
2019/05/17 12:46:16;;;;;;;2.2;1.1;;;;;;;;;;;;;
2019/05/17 12:48:47;;;;;;;3.8;1.3;;;;;;;;;;;;;
2019/05/17 12:51:20;;;;;;;2.6;1.2;;;;;;;;;;;;;
2019/05/17 12:53:39;;;;;;;2.1;1.2;;;;;;;;;;;;;
2019/05/17 12:56:04;;;;;;;2.1;1.2;;;;;;;;;;;;;
2019/05/17 12:58:29;;;;;;;1.6;1.2;;;;;;;;;;;;;
2019/05/17 13:01:01;;;;;;;2.1;1.3;;;;;;;;;;;;;
2019/05/17 13:03:26;;;;;;;2.8;1.2;;;;;;;;;;;;;
2019/05/17 13:05:55;;;;;;;1.2;1.1;;;;;;;;;;;;;
2019/05/17 13:08:28;;;;;;;1.7;1.2;;;;;;;;;;;;;
2019/05/17 13:10:54;;;;;;;2.5;1.1;;;;;;;;;;;;;
2019/05/17 13:13:21;;;;;;;1.4;1.1;;;;;;;;;;;;;
2019/05/17 13:15:47;;;;;;;6.7;1.1;;;;;;;;;;;;;
2019/05/17 13:18:13;;;;;;;2.2;1.3;;;;;;;;;;;;;
2019/05/17 13:20:41;;;;;;;1.7;1;;;;;;;;;;;;;
2019/05/17 13:23:04;;;;;;;2.5;1.3;;;;;;;;;;;;;
2019/05/17 13:25:28;;;;;;;2.3;1.2;;;;;;;;;;;;;
2019/05/17 13:27:57;;;;;;;3.1;1.1;;;;;;;;;;;;;
2019/05/17 13:30:24;;;;;;;1.3;1.2;;;;;;;;;;;;;
2019/05/17 13:32:54;;;;;;;3.7;1.6;;;;;;;;;;;;;
2019/05/17 13:35:19;;;;;;;5.2;1.3;;;;;;;;;;;;;
2019/05/17 13:37:49;;;;;;;2.1;1.2;;;;;;;;;;;;;
2019/05/17 13:40:14;;;;;;;1.4;1.1;;;;;;;;;;;;;
2019/05/17 13:42:45;;;;;;;3.3;1.3;;;;;;;;;;;;;
2019/05/17 13:45:12;;;;;;;3.3;1.3;;;;;;;;;;;;;
2019/05/17 13:47:43;;;;;;;2.5;1.2;;;;;;;;;;;;;
2019/05/17 13:50:02;;;;;;;3.5;1.3;;;;;;;;;;;;;
2019/05/17 13:52:28;;;;;;;4.2;1.3;;;;;;;;;;;;;
2019/05/17 13:54:57;;;;;;;3.3;1.2;;;;;;;;;;;;;
2019/05/17 13:57:20;;;;;;;2;1.1;;;;;;;;;;;;;
2019/05/17 13:59:45;;;;;;;4.1;1.4;;;;;;;;;;;;;
2019/05/17 14:02:11;;;;;;;3.1;1.2;;;;;;;;;;;;;
2019/05/17 14:04:39;;;;;;;9.1;2;;;;;;;;;;;;;
2019/05/17 14:07:02;;;;;;;3;1.3;;;;;;;;;;;;;
2019/05/17 14:09:27;;;;;;;3.8;1.3;;;;;;;;;;;;;
2019/05/17 14:11:55;;;;;;;4.7;1.3;;;;;;;;;;;;;
2019/05/17 14:14:19;;;;;;;3.2;1.7;;;;;;;;;;;;;
2019/05/17 14:16:44;;;;;;;1.9;1.3;;;;;;;;;;;;;
2019/05/17 14:19:10;;;;;;;2.1;1.2;;;;;;;;;;;;;
2019/05/17 14:21:37;;;;;;;2.3;1.3;;;;;;;;;;;;;
2019/05/17 14:24:02;;;;;;;3.9;1.1;;;;;;;;;;;;;
2019/05/17 14:26:27;;;;;;;1.9;1.4;;;;;;;;;;;;;
2019/05/17 14:28:54;;;;;;;2.2;1.2;;;;;;;;;;;;;
2019/05/17 14:31:18;;;;;;;1.7;1.4;;;;;;;;;;;;;
2019/05/17 14:33:45;;;;;;;1.5;1.1;;;;;;;;;;;;;
2019/05/17 14:36:18;;;;;;;1.5;1.1;;;;;;;;;;;;;
2019/05/17 14:38:39;;;;;;;3.6;1.3;;;;;;;;;;;;;
2019/05/17 14:41:14;;;;;;;1.6;1.2;;;;;;;;;;;;;
2019/05/17 14:43:32;;;;;;;2.9;1.4;;;;;;;;;;;;;
2019/05/17 14:45:57;;;;;;;5.2;1.4;;;;;;;;;;;;;
2019/05/17 14:48:25;;;;;;;7;1.6;;;;;;;;;;;;;
2019/05/17 14:50:49;;;;;;;3.4;1.4;;;;;;;;;;;;;
2019/05/17 14:53:16;;;;;;;2.9;1.2;;;;;;;;;;;;;
2019/05/17 14:55:45;;;;;;;2.9;1.2;;;;;;;;;;;;;
2019/05/17 14:58:11;;;;;;;2.8;1.3;;;;;;;;;;;;;
2019/05/17 15:00:32;;;;;;;2;1.4;;;;;;;;;;;;;
2019/05/17 15:02:58;;;;;;;4.1;1.4;;;;;;;;;;;;;
2019/05/17 15:05:26;;;;;;;3.4;1.2;;;;;;;;;;;;;
2019/05/17 15:07:49;;;;;;;3.4;1.3;;;;;;;;;;;;;
2019/05/17 15:10:15;;;;;;;2.8;1.3;;;;;;;;;;;;;
2019/05/17 15:12:40;;;;;;;2.4;1.3;;;;;;;;;;;;;
2019/05/17 15:15:06;;;;;;;1.8;1.4;;;;;;;;;;;;;
2019/05/17 15:17:30;;;;;;;2.2;1.2;;;;;;;;;;;;;
2019/05/17 15:19:58;;;;;;;3.1;1.4;;;;;;;;;;;;;
2019/05/17 15:22:26;;;;;;;2.2;1.3;;;;;;;;;;;;;
2019/05/17 15:24:51;;;;;;;2.6;1.5;;;;;;;;;;;;;
2019/05/17 15:27:17;;;;;;;3.5;1.3;;;;;;;;;;;;;
2019/05/17 15:29:46;;;;;;;4;1.3;;;;;;;;;;;;;
2019/05/17 15:32:08;;;;;;;2.8;1.3;;;;;;;;;;;;;
2019/05/17 15:34:32;;;;;;;2.4;1.3;;;;;;;;;;;;;
2019/05/17 15:37:00;;;;;;;2.7;1.3;;;;;;;;;;;;;
2019/05/17 15:39:27;;;;;;;2.7;1.3;;;;;;;;;;;;;
2019/05/17 15:41:48;;;;;;;6.5;1.7;;;;;;;;;;;;;
2019/05/17 15:44:15;;;;;;;2.1;1.3;;;;;;;;;;;;;
2019/05/17 15:46:42;;;;;;;1.9;1.3;;;;;;;;;;;;;
2019/05/17 15:49:07;;;;;;;2;1.5;;;;;;;;;;;;;
2019/05/17 15:51:37;;;;;;;2;1.2;;;;;;;;;;;;;
2019/05/17 15:54:01;;;;;;;1.8;1.4;;;;;;;;;;;;;
2019/05/17 15:56:26;;;;;;;4.5;1.5;;;;;;;;;;;;;
2019/05/17 15:58:51;;;;;;;3.3;1.5;;;;;;;;;;;;;
2019/05/17 16:01:18;;;;;;;3.5;1.5;;;;;;;;;;;;;
2019/05/17 16:03:44;;;;;;;4.6;1.9;;;;;;;;;;;;;
2019/05/17 16:06:08;;;;;;;8.8;3;;;;;;;;;;;;;
2019/05/17 16:08:37;;;;;;;4.6;2.3;;;;;;;;;;;;;
2019/05/17 16:11:03;;;;;;;2.7;1.6;;;;;;;;;;;;;
2019/05/17 16:13:28;;;;;;;10.8;3.2;;;;;;;;;;;;;
2019/05/17 16:15:57;;;;;;;6.4;2.1;;;;;;;;;;;;;
2019/05/17 16:18:23;;;;;;;20.5;4;;;;;;;;;;;;;
2019/05/17 16:20:43;;;;;;;5.6;1.7;;;;;;;;;;;;;
2019/05/17 16:23:10;;;;;;;6.5;2.2;;;;;;;;;;;;;
2019/05/17 16:25:35;;;;;;;6;1.8;;;;;;;;;;;;;
2019/05/17 16:28:02;;;;;;;1.7;1.5;;;;;;;;;;;;;
2019/05/17 16:30:27;;;;;;;2.8;1.5;;;;;;;;;;;;;
2019/05/17 16:32:51;;;;;;;3.1;1.5;;;;;;;;;;;;;
2019/05/17 16:35:17;;;;;;;2.7;1.5;;;;;;;;;;;;;
2019/05/17 16:37:46;;;;;;;7.1;2.1;;;;;;;;;;;;;
2019/05/17 16:40:11;;;;;;;8.1;2;;;;;;;;;;;;;
2019/05/17 16:42:39;;;;;;;5.8;1.9;;;;;;;;;;;;;
2019/05/17 16:45:07;;;;;;;7.3;2;;;;;;;;;;;;;
2019/05/17 16:47:28;;;;;;;11.8;2.7;;;;;;;;;;;;;
2019/05/17 16:49:52;;;;;;;12.8;2.5;;;;;;;;;;;;;
2019/05/17 16:52:20;;;;;;;5.5;1.8;;;;;;;;;;;;;
2019/05/17 16:54:48;;;;;;;5;2.1;;;;;;;;;;;;;
2019/05/17 16:57:15;;;;;;;11.9;2.1;;;;;;;;;;;;;
2019/05/17 16:59:39;;;;;;;7.4;1.9;;;;;;;;;;;;;
2019/05/17 17:02:05;;;;;;;2.8;1.7;;;;;;;;;;;;;
2019/05/17 17:04:29;;;;;;;4.3;1.7;;;;;;;;;;;;;
2019/05/17 17:06:57;;;;;;;19;3.2;;;;;;;;;;;;;
2019/05/17 17:09:20;;;;;;;11.4;2.7;;;;;;;;;;;;;
2019/05/17 17:11:46;;;;;;;5.1;2;;;;;;;;;;;;;
2019/05/17 17:14:19;;;;;;;6.4;2.2;;;;;;;;;;;;;
2019/05/17 17:16:40;;;;;;;10.5;2.1;;;;;;;;;;;;;
2019/05/17 17:19:06;;;;;;;6.4;1.8;;;;;;;;;;;;;
2019/05/17 17:21:39;;;;;;;8.1;2.4;;;;;;;;;;;;;
2019/05/17 17:24:08;;;;;;;3.4;2.1;;;;;;;;;;;;;
2019/05/17 17:26:31;;;;;;;11.6;3.3;;;;;;;;;;;;;
2019/05/17 17:28:56;;;;;;;5.4;2.7;;;;;;;;;;;;;
2019/05/17 17:31:25;;;;;;;11;3.1;;;;;;;;;;;;;
2019/05/17 17:33:51;;;;;;;4.7;2.2;;;;;;;;;;;;;
2019/05/17 17:36:22;;;;;;;3.8;2.3;;;;;;;;;;;;;
2019/05/17 17:38:48;;;;;;;4.9;2.3;;;;;;;;;;;;;
2019/05/17 17:41:15;;;;;;;2.7;1.5;;;;;;;;;;;;;
2019/05/17 17:43:39;;;;;;;3.1;1.6;;;;;;;;;;;;;
2019/05/17 17:46:04;;;;;;;4.5;2.4;;;;;;;;;;;;;
2019/05/17 17:48:35;;;;;;;15.8;3.7;;;;;;;;;;;;;
2019/05/17 17:50:59;;;;;;;11.9;3.5;;;;;;;;;;;;;
2019/05/17 17:53:24;;;;;;;7.3;3.3;;;;;;;;;;;;;
2019/05/17 17:55:53;;;;;;;8.1;3.2;;;;;;;;;;;;;
2019/05/17 17:58:17;;;;;;;5;2.8;;;;;;;;;;;;;
2019/05/17 18:00:42;;;;;;;4.1;2.7;;;;;;;;;;;;;
2019/05/17 18:03:14;;;;;;;5.1;2.6;;;;;;;;;;;;;
2019/05/17 18:05:33;;;;;;;6.5;3.2;;;;;;;;;;;;;
2019/05/17 18:07:59;;;;;;;9.9;5.6;;;;;;;;;;;;;
2019/05/17 18:10:22;;;;;;;9.7;5.2;;;;;;;;;;;;;
2019/05/17 18:12:50;;;;;;;7.1;4.6;;;;;;;;;;;;;
2019/05/17 18:15:14;;;;;;;9.7;3.2;;;;;;;;;;;;;
2019/05/17 18:17:38;;;;;;;8.3;3.3;;;;;;;;;;;;;
2019/05/17 18:20:05;;;;;;;5.8;3.9;;;;;;;;;;;;;
2019/05/17 18:22:31;;;;;;;5.7;3.3;;;;;;;;;;;;;
2019/05/17 18:24:56;;;;;;;5.1;2.2;;;;;;;;;;;;;
2019/05/17 18:27:21;;;;;;;9.9;3.7;;;;;;;;;;;;;
2019/05/17 18:29:49;;;;;;;6.4;3.1;;;;;;;;;;;;;
2019/05/17 18:32:12;;;;;;;6.4;2.8;;;;;;;;;;;;;
2019/05/17 18:34:37;;;;;;;6.8;2.7;;;;;;;;;;;;;
2019/05/17 18:37:04;;;;;;;4.9;2.6;;;;;;;;;;;;;
2019/05/17 18:39:35;;;;;;;8;3.9;;;;;;;;;;;;;
2019/05/17 18:41:59;;;;;;;6.4;4;;;;;;;;;;;;;
2019/05/17 18:44:20;;;;;;;7.8;4.3;;;;;;;;;;;;;
2019/05/17 18:46:54;;;;;;;10.9;4.3;;;;;;;;;;;;;
2019/05/17 18:49:15;;;;;;;8.6;3.6;;;;;;;;;;;;;
2019/05/17 18:51:40;;;;;;;11.3;4.6;;;;;;;;;;;;;
2019/05/17 18:54:06;;;;;;;5.9;3.1;;;;;;;;;;;;;
2019/05/17 18:56:32;;;;;;;7.2;3;;;;;;;;;;;;;
2019/05/17 18:58:55;;;;;;;8.5;3.5;;;;;;;;;;;;;
2019/05/17 19:01:29;;;;;;;9.1;3;;;;;;;;;;;;;
2019/05/17 19:04:01;;;;;;;7.4;2.9;;;;;;;;;;;;;
2019/05/17 19:06:19;;;;;;;13.7;3.5;;;;;;;;;;;;;
2019/05/17 19:08:47;;;;;;;6.6;2.6;;;;;;;;;;;;;
2019/05/17 19:11:07;;;;;;;7.6;2.2;;;;;;;;;;;;;
2019/05/17 19:13:37;;;;;;;6.9;2;;;;;;;;;;;;;
2019/05/17 19:16:00;;;;;;;10.1;2.3;;;;;;;;;;;;;
2019/05/17 19:18:25;;;;;;;8.1;2.8;;;;;;;;;;;;;
2019/05/17 19:20:50;;;;;;;9.8;3.2;;;;;;;;;;;;;
2019/05/17 19:23:18;;;;;;;7.1;3.8;;;;;;;;;;;;;
2019/05/17 19:25:43;;;;;;;8.8;4.2;;;;;;;;;;;;;
2019/05/17 19:28:06;;;;;;;9.8;4.9;;;;;;;;;;;;;
2019/05/17 19:30:38;;;;;;;8;3.9;;;;;;;;;;;;;
2019/05/17 19:33:01;;;;;;;10.8;4.1;;;;;;;;;;;;;
2019/05/17 19:35:25;;;;;;;11.2;4.2;;;;;;;;;;;;;
2019/05/17 19:37:48;;;;;;;7;4.2;;;;;;;;;;;;;
2019/05/17 19:40:24;;;;;;;9.1;4.5;;;;;;;;;;;;;
2019/05/17 19:42:47;;;;;;;8.1;5.4;;;;;;;;;;;;;
2019/05/17 19:45:17;;;;;;;13.4;5.6;;;;;;;;;;;;;
2019/05/17 19:47:37;;;;;;;5.7;4;;;;;;;;;;;;;
2019/05/17 19:50:02;;;;;;;6.2;4.1;;;;;;;;;;;;;
2019/05/17 19:52:29;;;;;;;6.4;4.1;;;;;;;;;;;;;
2019/05/17 19:54:56;;;;;;;10.7;5.6;;;;;;;;;;;;;
2019/05/17 19:57:22;;;;;;;12.3;5.7;;;;;;;;;;;;;
2019/05/17 20:00:00;;;;;;;12.7;7.5;;;;;;;;;;;;;
2019/05/17 20:12:40;;;;;;;14.3;5.8;;;;;;;;;;;;;
2019/05/17 20:15:07;;;;;;;9.9;3.3;;;;;;;;;;;;;
2019/05/17 20:17:34;;;;;;;6.7;3.5;;;;;;;;;;;;;
2019/05/17 20:19:56;;;;;;;7.6;3.6;;;;;;;;;;;;;
2019/05/17 20:22:28;;;;;;;7.3;3.9;;;;;;;;;;;;;
2019/05/17 20:24:47;;;;;;;6.7;4;;;;;;;;;;;;;
2019/05/17 20:27:17;;;;;;;12.3;10.4;;;;;;;;;;;;;
2019/05/17 20:29:47;;;;;;;6.2;4.9;;;;;;;;;;;;;
2019/05/17 20:32:15;;;;;;;2.9;2.3;;;;;;;;;;;;;
2019/05/17 20:34:45;;;;;;;5.7;2.9;;;;;;;;;;;;;
2019/05/17 20:37:05;;;;;;;4.1;2.1;;;;;;;;;;;;;
2019/05/17 20:39:29;;;;;;;3.1;2.3;;;;;;;;;;;;;
2019/05/17 20:41:59;;;;;;;6.1;2.4;;;;;;;;;;;;;
2019/05/17 20:44:25;;;;;;;7.8;4.5;;;;;;;;;;;;;
2019/05/17 20:46:55;;;;;;;8;5.3;;;;;;;;;;;;;
2019/05/17 20:54:20;;;;;;;19.1;5.4;;;;;;;;;;;;;
2019/05/17 20:56:43;;;;;;;4.7;3.7;;;;;;;;;;;;;
2019/05/17 20:59:09;;;;;;;5.5;2.9;;;;;;;;;;;;;
2019/05/17 21:01:35;;;;;;;5.1;2.8;;;;;;;;;;;;;
2019/05/17 21:04:02;;;;;;;5.2;3.4;;;;;;;;;;;;;
2019/05/17 21:06:27;;;;;;;6.6;4;;;;;;;;;;;;;
2019/05/17 21:08:55;;;;;;;9.3;4.4;;;;;;;;;;;;;
2019/05/17 21:11:20;;;;;;;5.9;3.7;;;;;;;;;;;;;
2019/05/17 21:13:46;;;;;;;10.6;4.9;;;;;;;;;;;;;
2019/05/17 21:16:14;;;;;;;6.6;4.2;;;;;;;;;;;;;
2019/05/17 21:18:37;;;;;;;8.4;4.1;;;;;;;;;;;;;
2019/05/17 21:21:02;;;;;;;5.8;3.8;;;;;;;;;;;;;
2019/05/17 21:23:27;;;;;;;5.5;3.2;;;;;;;;;;;;;
2019/05/17 21:25:54;;;;;;;9.5;3.9;;;;;;;;;;;;;
2019/05/17 21:28:21;;;;;;;9.2;3.6;;;;;;;;;;;;;
2019/05/17 21:30:47;;;;;;;6;3.2;;;;;;;;;;;;;
2019/05/17 21:33:17;;;;;;;3.8;2.7;;;;;;;;;;;;;
2019/05/17 21:35:38;;;;;;;6.5;3.2;;;;;;;;;;;;;
2019/05/17 21:38:02;;;;;;;3.7;2.8;;;;;;;;;;;;;
2019/05/17 21:40:31;;;;;;;5.2;2.9;;;;;;;;;;;;;
2019/05/17 21:42:58;;;;;;;5;2.8;;;;;;;;;;;;;
2019/05/17 21:45:21;;;;;;;6.2;3.2;;;;;;;;;;;;;
2019/05/17 21:47:46;;;;;;;3.9;2.8;;;;;;;;;;;;;
2019/05/17 21:50:15;;;;;;;5.1;3.4;;;;;;;;;;;;;
2019/05/17 21:52:39;;;;;;;8.1;3.5;;;;;;;;;;;;;
2019/05/17 21:55:14;;;;;;;5.1;3.5;;;;;;;;;;;;;
2019/05/17 21:57:41;;;;;;;4.9;3.5;;;;;;;;;;;;;
2019/05/17 22:00:09;;;;;;;4.2;3.2;;;;;;;;;;;;;
2019/05/17 22:02:32;;;;;;;6.5;3.2;;;;;;;;;;;;;
2019/05/17 22:05:01;;;;;;;6.1;3.3;;;;;;;;;;;;;
2019/05/17 22:07:32;;;;;;;4.2;2.9;;;;;;;;;;;;;
2019/05/17 22:09:57;;;;;;;5.6;3;;;;;;;;;;;;;
2019/05/17 22:12:22;;;;;;;4.5;2.6;;;;;;;;;;;;;
2019/05/17 22:14:49;;;;;;;4.3;2.9;;;;;;;;;;;;;
2019/05/17 22:17:15;;;;;;;3.7;2.4;;;;;;;;;;;;;
2019/05/17 22:19:47;;;;;;;5.6;2.8;;;;;;;;;;;;;
2019/05/17 22:22:12;;;;;;;4.9;3.2;;;;;;;;;;;;;
2019/05/17 22:24:36;;;;;;;5;3.2;;;;;;;;;;;;;
2019/05/17 22:27:05;;;;;;;6.7;3.5;;;;;;;;;;;;;
2019/05/17 22:29:30;;;;;;;9.1;5.4;;;;;;;;;;;;;
2019/05/17 22:31:54;;;;;;;8.4;4.8;;;;;;;;;;;;;
2019/05/17 22:34:22;;;;;;;10;4.2;;;;;;;;;;;;;
2019/05/17 22:36:47;;;;;;;6.4;3.8;;;;;;;;;;;;;
2019/05/17 22:39:12;;;;;;;6.5;3.4;;;;;;;;;;;;;
2019/05/17 22:41:39;;;;;;;5.7;2.8;;;;;;;;;;;;;
2019/05/17 22:44:03;;;;;;;4.5;3.2;;;;;;;;;;;;;
2019/05/17 22:46:38;;;;;;;7.6;4.4;;;;;;;;;;;;;
2019/05/17 22:49:03;;;;;;;7.7;4.3;;;;;;;;;;;;;